Time;durP1;ratioP1;P1;durP2;ratioP2;P2;SDS_P1;SDS_P2;PMS_P1;PMS_P2;Temp;Humidity;BMP_temperature;BMP_pressure;BME280_temperature;BME280_humidity;BME280_pressure;Samples;Min_cycle;Max_cycle;Signal;HPM_P1;HPM_P2
2022/06/03 00:02:46;;;;;;;7.00;5.80;;;;;;;14.80;55.47;101818.50;5049701;28;20054;-64
2022/06/03 00:05:27;;;;;;;8.65;5.82;;;;;;;14.69;55.87;101812.00;5080634;28;20071;-64
2022/06/03 00:08:23;;;;;;;6.78;6.07;;;;;;;14.65;55.65;101815.00;5071325;28;20028;-64
2022/06/03 00:11:07;;;;;;;8.52;5.53;;;;;;;14.63;56.12;101817.75;5088616;28;20028;-64
2022/06/03 00:13:42;;;;;;;7.40;5.93;;;;;;;14.61;56.45;101813.47;5070891;28;20039;-64
2022/06/03 00:16:26;;;;;;;6.55;5.85;;;;;;;14.62;56.02;101816.06;5089436;28;20063;-64
2022/06/03 00:19:23;;;;;;;7.57;5.70;;;;;;;14.62;55.96;101812.50;5086572;28;21076;-64
2022/06/03 00:21:58;;;;;;;6.70;5.63;;;;;;;14.46;57.06;101816.13;5073056;28;20138;-64
2022/06/03 00:24:54;;;;;;;6.80;6.10;;;;;;;14.59;56.26;101818.03;5071834;28;20031;-64
2022/06/03 00:27:25;;;;;;;6.30;5.70;;;;;;;14.53;56.67;101811.28;5091983;28;20043;-64
2022/06/03 00:30:22;;;;;;;6.68;5.97;;;;;;;14.58;56.42;101814.50;5075942;28;20032;-64
2022/06/03 00:32:57;;;;;;;7.13;5.78;;;;;;;14.53;57.02;101811.28;5084680;28;20028;-64
2022/06/03 00:35:54;;;;;;;6.35;5.85;;;;;;;14.46;56.89;101813.44;5080547;28;20032;-64
2022/06/03 00:38:28;;;;;;;6.53;5.72;;;;;;;14.40;57.13;101813.00;5081575;28;20315;-64
2022/06/03 00:41:09;;;;;;;8.40;5.90;;;;;;;14.35;57.50;101805.25;5079285;28;20020;-64
2022/06/03 00:43:56;;;;;;;6.97;6.10;;;;;;;14.35;57.31;101804.38;5100910;28;20020;-64
2022/06/03 00:46:40;;;;;;;6.50;5.90;;;;;;;14.32;57.41;101810.78;5098372;28;20040;-64
2022/06/03 00:49:18;;;;;;;6.97;6.20;;;;;;;14.20;57.89;101808.88;5101345;28;20034;-64
2022/06/03 00:52:31;;;;;;;8.13;6.28;;;;;;;14.30;57.29;101812.72;5099989;28;20046;-64
2022/06/03 00:55:28;;;;;;;6.63;6.03;;;;;;;14.25;57.49;101807.66;5088159;28;20024;-64
2022/06/03 00:58:05;;;;;;;6.25;5.65;;;;;;;14.17;57.82;101803.72;5087842;28;20043;-64
2022/06/03 01:00:36;;;;;;;6.50;5.88;;;;;;;14.17;58.10;101811.75;5084066;28;20040;-64
2022/06/03 01:03:11;;;;;;;6.53;5.72;;;;;;;14.02;58.03;101771.63;5086301;28;20153;-64
2022/06/03 01:06:14;;;;;;;6.22;5.60;;;;;;;14.18;57.67;101795.63;5089194;28;20036;-64
2022/06/03 01:09:19;;;;;;;7.47;6.38;;;;;;;14.17;57.84;101799.25;5088051;28;20028;-64
2022/06/03 01:11:47;;;;;;;7.72;6.00;;;;;;;14.02;58.70;101793.03;5087384;28;20036;-64
2022/06/03 01:14:49;;;;;;;6.88;6.18;;;;;;;14.17;58.06;101793.88;5089857;28;20032;-64
2022/06/03 01:17:43;;;;;;;6.57;6.07;;;;;;;14.16;58.44;101796.69;5091468;28;20103;-64
2022/06/03 01:20:22;;;;;;;6.78;6.07;;;;;;;14.07;58.55;101782.91;5086235;28;20036;-63
2022/06/03 01:23:15;;;;;;;6.47;5.88;;;;;;;14.03;58.65;101788.53;5074492;28;20510;-64
2022/06/03 01:26:05;;;;;;;7.68;6.13;;;;;;;14.12;58.56;101782.63;5086786;28;20545;-64
2022/06/03 01:29:09;;;;;;;6.93;6.25;;;;;;;14.12;58.64;101777.28;5087330;28;20475;-64
2022/06/03 01:32:19;;;;;;;8.80;6.25;;;;;;;14.14;58.49;101771.81;5090670;28;20031;-64
2022/06/03 01:35:02;;;;;;;7.03;6.32;;;;;;;14.02;59.42;101770.78;5008866;28;20500;-63
2022/06/03 01:37:39;;;;;;;7.22;6.28;;;;;;;14.04;58.77;101774.22;5070471;28;20587;-64
2022/06/03 01:40:08;;;;;;;8.00;5.38;;;;;;;13.98;59.52;101775.47;5083089;28;20025;-64
2022/06/03 01:42:48;;;;;;;6.57;5.97;;;;;;;13.97;59.13;101764.84;5075160;28;20031;-64
2022/06/03 01:45:37;;;;;;;7.05;6.03;;;;;;;14.03;58.66;101765.34;5092424;28;20115;-64
2022/06/03 01:48:02;;;;;;;7.20;6.00;;;;;;;14.01;58.88;101759.22;5106387;28;20706;-64
2022/06/03 01:50:37;;;;;;;6.88;6.13;;;;;;;14.03;59.26;101762.69;5084492;28;20028;-64
2022/06/03 01:53:17;;;;;;;8.73;6.35;;;;;;;13.98;59.33;101763.91;5080036;28;20035;-64
2022/06/03 01:55:49;;;;;;;6.68;6.07;;;;;;;13.95;58.99;101761.44;5089272;28;20046;-64
2022/06/03 01:58:34;;;;;;;7.38;5.85;;;;;;;14.02;58.67;101755.59;5077600;28;20060;-64
2022/06/03 02:01:21;;;;;;;6.60;6.10;;;;;;;13.93;59.38;101755.31;5078963;28;20090;-64
2022/06/03 02:04:06;;;;;;;7.65;5.93;;;;;;;13.89;59.21;101764.50;5096705;28;20114;-63
2022/06/03 02:07:08;;;;;;;8.73;6.78;;;;;;;13.93;58.89;101757.97;5101662;28;20059;-64
2022/06/03 02:09:41;;;;;;;7.25;6.32;;;;;;;13.81;59.20;101741.75;5094970;28;20028;-64
2022/06/03 02:12:42;;;;;;;7.78;6.40;;;;;;;13.93;58.96;101741.94;5082455;28;20582;-64
2022/06/03 02:15:32;;;;;;;7.15;6.55;;;;;;;13.80;59.57;101741.84;5087982;28;20028;-64
2022/06/03 02:18:12;;;;;;;8.55;6.68;;;;;;;13.77;59.39;101742.06;5092649;28;20028;-63
2022/06/03 02:21:05;;;;;;;7.05;6.35;;;;;;;13.70;59.84;101740.69;5091264;28;20110;-64
2022/06/03 02:23:52;;;;;;;7.05;6.35;;;;;;;13.76;59.66;101753.69;5088805;28;20032;-64
2022/06/03 02:26:46;;;;;;;7.38;6.55;;;;;;;13.71;59.84;101742.44;5090365;28;20470;-64
2022/06/03 02:32:35;;;;;;;7.30;6.60;;;;;;;13.54;60.58;101754.16;5089401;28;20099;-64
2022/06/03 02:35:23;;;;;;;8.07;6.55;;;;;;;13.58;59.98;101751.19;5083707;28;20040;-64
2022/06/03 02:38:15;;;;;;;6.97;6.38;;;;;;;13.61;60.20;101736.78;5089181;28;20037;-63
2022/06/03 02:40:42;;;;;;;8.40;6.85;;;;;;;13.48;61.07;101742.03;5075583;28;20037;-64
2022/06/03 02:43:13;;;;;;;7.68;6.97;;;;;;;13.36;61.12;101737.44;5066749;28;20027;-64
2022/06/03 02:46:15;;;;;;;7.63;6.93;;;;;;;13.39;61.19;101737.25;5098860;28;20422;-64
2022/06/03 02:49:18;;;;;;;7.10;6.45;;;;;;;13.30;61.82;101727.97;5108628;28;20019;-64
2022/06/03 02:52:05;;;;;;;7.82;6.70;;;;;;;13.37;61.28;101728.44;5013794;28;20092;-64
2022/06/03 02:54:55;;;;;;;9.18;6.90;;;;;;;13.32;61.34;101725.19;5090789;28;20036;-64
2022/06/03 02:57:48;;;;;;;8.30;7.50;;;;;;;13.18;61.77;101726.88;5090320;28;20047;-64
2022/06/03 03:00:23;;;;;;;8.48;7.68;;;;;;;13.19;61.88;101728.56;5091763;28;20044;-64
2022/06/03 03:03:21;;;;;;;7.88;6.68;;;;;;;13.18;62.03;101731.34;5089780;28;20032;-64
2022/06/03 03:06:09;;;;;;;7.80;7.15;;;;;;;13.19;62.26;101733.06;5074874;28;21947;-64
2022/06/03 03:08:49;;;;;;;7.70;6.97;;;;;;;13.23;62.15;101739.06;5088153;28;20030;-64
2022/06/03 03:11:37;;;;;;;7.93;7.22;;;;;;;13.13;62.36;101744.13;5091986;28;20023;-63
2022/06/03 03:14:32;;;;;;;7.72;6.93;;;;;;;13.20;61.80;101734.78;5103928;28;20061;-64
2022/06/03 03:17:26;;;;;;;7.60;7.00;;;;;;;13.10;62.52;101723.78;5076416;28;20086;-63
2022/06/03 03:20:25;;;;;;;9.02;7.40;;;;;;;12.98;62.99;101718.31;5097495;28;20034;-64
2022/06/03 03:23:19;;;;;;;8.57;7.07;;;;;;;13.03;63.14;101724.22;5083368;28;20044;-64
2022/06/03 03:26:03;;;;;;;9.23;7.07;;;;;;;12.91;63.59;101721.34;5082639;28;20099;-64
2022/06/03 03:28:52;;;;;;;8.57;7.63;;;;;;;12.85;63.72;101724.38;5092194;28;20535;-63
2022/06/03 03:31:45;;;;;;;8.32;7.53;;;;;;;12.94;63.00;101712.28;5104147;28;20103;-63
2022/06/03 03:34:20;;;;;;;8.68;7.78;;;;;;;12.81;63.95;101709.47;5100879;28;20048;-64
2022/06/03 03:37:14;;;;;;;8.80;7.97;;;;;;;12.81;63.73;101709.47;5070660;28;20027;-63
2022/06/03 03:39:39;;;;;;;8.57;7.78;;;;;;;12.81;64.17;101701.47;5090383;28;20081;-63
2022/06/03 03:42:41;;;;;;;8.77;7.93;;;;;;;12.80;63.76;101704.25;5088561;28;20039;-64
2022/06/03 03:45:42;;;;;;;8.32;7.60;;;;;;;12.77;63.78;101707.94;5087717;28;20527;-64
2022/06/03 03:48:39;;;;;;;8.13;7.28;;;;;;;12.72;63.73;101713.53;4985336;28;20109;-63
2022/06/03 03:51:10;;;;;;;11.02;8.40;;;;;;;12.77;63.97;101721.31;5089928;28;20028;-63
2022/06/03 03:53:54;;;;;;;8.70;7.88;;;;;;;12.75;64.05;101709.00;5087829;28;20046;-64
2022/06/03 03:56:28;;;;;;;9.80;8.80;;;;;;;12.77;64.12;101713.28;5087153;28;20047;-64
2022/06/03 03:59:09;;;;;;;9.15;8.20;;;;;;;12.86;63.54;101707.41;5088237;28;20131;-64
2022/06/03 04:01:53;;;;;;;9.30;8.40;;;;;;;12.88;63.66;101708.19;5064848;28;20043;-64
2022/06/03 04:04:25;;;;;;;9.07;8.18;;;;;;;12.79;64.16;101707.84;5080821;28;20338;-64
2022/06/03 04:06:56;;;;;;;8.60;7.80;;;;;;;12.82;64.36;101695.16;5084608;28;20020;-63
2022/06/03 04:09:39;;;;;;;8.75;7.80;;;;;;;12.78;64.03;101693.66;5085332;28;20020;-63
2022/06/03 04:12:29;;;;;;;8.45;7.65;;;;;;;12.77;63.92;101697.28;5085551;28;20378;-64
2022/06/03 04:15:32;;;;;;;8.73;7.95;;;;;;;12.75;64.23;101698.31;5074194;28;20020;-64
2022/06/03 04:18:19;;;;;;;10.75;8.77;;;;;;;12.79;64.10;101694.50;5070850;28;20035;-64
2022/06/03 04:20:45;;;;;;;9.68;8.77;;;;;;;12.73;64.76;101698.38;5088093;28;20027;-63
2022/06/03 04:23:48;;;;;;;10.30;8.82;;;;;;;12.81;64.18;101696.13;5074812;28;20027;-63
2022/06/03 04:26:19;;;;;;;8.88;8.07;;;;;;;12.76;64.63;101690.19;5074580;28;20032;-63
2022/06/03 04:29:06;;;;;;;9.75;8.82;;;;;;;12.77;64.91;101681.25;5084598;28;20051;-64
2022/06/03 04:31:56;;;;;;;8.75;7.85;;;;;;;12.86;64.55;101682.53;5098034;28;20032;-63
2022/06/03 04:34:54;;;;;;;9.50;8.38;;;;;;;12.81;64.39;101679.25;5077642;28;20032;-63
2022/06/03 04:37:41;;;;;;;10.70;9.27;;;;;;;12.94;64.36;101691.81;5088635;28;20089;-63
2022/06/03 04:40:43;;;;;;;11.13;8.48;;;;;;;12.90;64.45;101695.59;5087122;28;20032;-63
2022/06/03 04:43:35;;;;;;;9.18;8.38;;;;;;;12.96;64.53;101694.38;5087523;28;20593;-63
2022/06/03 04:46:31;;;;;;;10.43;8.52;;;;;;;13.03;64.11;101698.41;5089518;28;20024;-63
2022/06/03 04:49:14;;;;;;;12.98;8.77;;;;;;;13.15;63.67;101707.50;5100522;28;20024;-64
2022/06/03 04:52:11;;;;;;;14.98;9.18;;;;;;;13.19;63.89;101717.88;5091878;28;20031;-64
2022/06/03 04:55:14;;;;;;;9.85;8.20;;;;;;;13.27;63.45;101714.78;5103513;28;20024;-64
2022/06/03 04:57:58;;;;;;;9.27;8.38;;;;;;;13.29;63.56;101710.19;5083618;28;20032;-63
2022/06/03 05:00:49;;;;;;;10.70;9.05;;;;;;;13.42;63.57;101707.66;5106700;28;20107;-63
2022/06/03 05:03:38;;;;;;;10.30;8.88;;;;;;;13.45;63.71;101701.28;5087432;28;20482;-63
2022/06/03 05:06:31;;;;;;;9.57;8.32;;;;;;;13.55;63.36;101705.09;5093204;28;20044;-63
2022/06/03 05:09:16;;;;;;;10.38;9.10;;;;;;;13.60;63.58;101703.84;5088430;28;20047;-64
2022/06/03 05:12:00;;;;;;;9.85;8.82;;;;;;;13.70;62.96;101698.78;5099864;28;20035;-63
2022/06/03 05:14:35;;;;;;;9.75;8.82;;;;;;;13.77;63.28;101704.63;5099170;28;20479;-64
2022/06/03 05:17:27;;;;;;;9.82;8.32;;;;;;;13.88;62.82;101701.25;5088490;28;20031;-64
2022/06/03 05:20:05;;;;;;;10.13;9.02;;;;;;;13.97;63.08;101687.28;5084374;28;20372;-64
2022/06/03 05:22:36;;;;;;;9.38;8.15;;;;;;;14.02;62.65;101686.03;5084081;28;20020;-64
2022/06/03 05:25:45;;;;;;;8.98;8.18;;;;;;;14.17;62.17;101696.72;5058495;28;20024;-64
2022/06/03 05:28:38;;;;;;;9.43;8.43;;;;;;;14.21;61.90;101687.56;5089636;28;20467;-63
2022/06/03 05:31:25;;;;;;;11.48;8.20;;;;;;;14.33;61.73;101689.41;5093138;28;20429;-64
2022/06/03 05:34:20;;;;;;;9.40;8.30;;;;;;;14.36;61.71;101685.69;5098604;28;20032;-63
2022/06/03 05:37:06;;;;;;;9.77;8.55;;;;;;;14.42;61.67;101688.81;5084854;28;20115;-64
2022/06/03 05:39:50;;;;;;;8.60;7.80;;;;;;;14.46;61.21;101689.47;5084622;28;20447;-64
2022/06/03 05:42:38;;;;;;;9.07;7.32;;;;;;;14.58;61.54;101694.03;5083849;28;20020;-64
2022/06/03 05:45:25;;;;;;;9.68;8.77;;;;;;;14.63;61.74;101686.56;5066553;28;20052;-64
2022/06/03 05:48:00;;;;;;;8.75;7.15;;;;;;;14.72;60.88;101685.09;5086103;28;20051;-64
2022/06/03 05:50:51;;;;;;;8.80;7.90;;;;;;;14.84;60.89;101684.25;5089063;28;20024;-64
2022/06/03 05:53:38;;;;;;;9.55;7.95;;;;;;;14.83;60.71;101682.56;5091275;28;20108;-64
2022/06/03 05:56:21;;;;;;;8.35;7.50;;;;;;;14.89;60.53;101681.28;5073553;28;20028;-64
2022/06/03 05:59:16;;;;;;;8.68;7.47;;;;;;;15.05;60.21;101689.97;5088559;28;20060;-63
2022/06/03 06:02:09;;;;;;;10.48;8.18;;;;;;;15.17;59.67;101694.47;5073996;28;20028;-63
2022/06/03 06:05:13;;;;;;;10.63;7.60;;;;;;;15.31;59.29;101687.31;5090074;28;20067;-64
2022/06/03 06:08:06;;;;;;;7.63;6.82;;;;;;;15.46;60.02;101683.56;5090073;28;20024;-64
2022/06/03 06:10:40;;;;;;;11.95;7.68;;;;;;;15.49;58.45;101691.38;5094098;28;20093;-63
2022/06/03 06:13:37;;;;;;;12.05;7.93;;;;;;;15.59;58.40;101691.63;5090977;28;20111;-64
2022/06/03 06:16:08;;;;;;;8.75;7.00;;;;;;;15.69;57.93;101673.94;5090193;28;20031;-64
2022/06/03 06:18:50;;;;;;;9.20;7.32;;;;;;;15.82;58.07;101693.53;5091741;28;20036;-64
2022/06/03 06:21:34;;;;;;;8.07;7.07;;;;;;;15.97;57.63;101688.91;5087254;28;20190;-63
2022/06/03 06:24:36;;;;;;;8.20;6.63;;;;;;;16.11;57.43;101702.16;5082554;28;20028;-64
2022/06/03 06:27:27;;;;;;;9.07;6.88;;;;;;;16.21;56.45;101696.16;5081081;28;20052;-64
2022/06/03 06:30:17;;;;;;;7.97;6.78;;;;;;;16.30;57.40;101687.41;5080694;28;20038;-64
2022/06/03 06:33:10;;;;;;;8.05;6.65;;;;;;;16.33;55.50;101689.88;5065578;28;20059;-65
2022/06/03 06:35:48;;;;;;;10.60;6.20;;;;;;;16.43;54.76;101690.88;5091270;28;20028;-64
2022/06/03 06:38:26;;;;;;;7.68;6.22;;;;;;;16.55;54.58;101687.28;5063676;28;20054;-64
2022/06/03 06:41:16;;;;;;;9.73;6.28;;;;;;;16.63;54.74;101691.25;5089621;28;20032;-64
2022/06/03 06:43:47;;;;;;;8.88;7.30;;;;;;;16.71;53.47;101687.00;5090683;28;20203;-64
2022/06/03 06:46:33;;;;;;;8.15;6.40;;;;;;;16.77;53.40;101686.56;5090565;28;20028;-64
2022/06/03 06:49:24;;;;;;;9.73;6.35;;;;;;;16.86;53.30;101689.53;5087231;28;20072;-64
2022/06/03 06:52:28;;;;;;;9.23;6.72;;;;;;;16.95;53.16;101675.41;5090251;28;20033;-64
2022/06/03 06:55:06;;;;;;;7.60;6.22;;;;;;;17.08;53.18;101688.72;5089483;28;20050;-64
2022/06/03 06:57:34;;;;;;;8.23;6.57;;;;;;;17.23;52.87;101690.22;5089412;28;20479;-64
2022/06/03 07:00:07;;;;;;;6.83;6.23;;;;;;;17.31;51.95;101684.25;5083567;28;20041;-64
2022/06/03 07:02:59;;;;;;;7.80;6.10;;;;;;;17.45;52.42;101694.81;5073240;28;20433;-64
2022/06/03 07:05:36;;;;;;;9.20;6.72;;;;;;;17.46;52.09;101689.28;5077922;28;20044;-64
2022/06/03 07:08:11;;;;;;;6.90;5.53;;;;;;;17.63;52.27;101689.78;5091952;28;20386;-64
2022/06/03 07:10:52;;;;;;;8.18;6.43;;;;;;;17.77;52.82;101683.31;5071537;28;20055;-64
2022/06/03 07:13:45;;;;;;;12.20;6.53;;;;;;;17.87;50.86;101689.69;5090106;28;20027;-64
2022/06/03 07:19:49;;;;;;;9.52;5.90;;;;;;;18.13;50.61;101679.50;5088938;28;20085;-64
2022/06/03 07:22:24;;;;;;;7.43;6.22;;;;;;;18.19;50.60;101679.00;5072463;28;20024;-65
2022/06/03 07:25:24;;;;;;;10.98;6.50;;;;;;;18.34;50.71;101680.44;5090479;28;20274;-64
2022/06/03 07:28:03;;;;;;;8.32;6.30;;;;;;;18.40;50.61;101679.06;5090398;28;20506;-64
2022/06/03 07:30:51;;;;;;;8.25;6.18;;;;;;;18.50;50.23;101671.06;5089333;28;20150;-64
2022/06/03 07:33:46;;;;;;;9.32;6.45;;;;;;;18.66;50.23;101673.34;5087701;28;20020;-64
2022/06/03 07:36:19;;;;;;;8.32;5.80;;;;;;;18.76;48.91;101675.16;5055050;28;20368;-64
2022/06/03 07:38:54;;;;;;;7.90;6.55;;;;;;;18.80;48.77;101673.06;5090860;28;20466;-64
2022/06/03 07:41:38;;;;;;;6.53;5.65;;;;;;;18.87;49.35;101676.09;5073064;28;20463;-64
2022/06/03 07:44:15;;;;;;;12.18;6.80;;;;;;;18.97;49.81;101682.41;5087009;28;20016;-66
2022/06/03 07:47:00;;;;;;;6.85;6.25;;;;;;;19.05;49.12;101667.28;5087281;28;20471;-64
2022/06/03 07:49:28;;;;;;;7.90;6.00;;;;;;;19.18;49.33;101672.50;5093546;28;20016;-64
2022/06/03 07:51:59;;;;;;;9.37;7.23;;;;;;;19.19;50.05;101674.19;5095836;28;20055;-64
2022/06/03 07:54:32;;;;;;;11.65;7.13;;;;;;;19.36;50.46;101675.44;5092582;28;20023;-64
2022/06/03 07:57:02;;;;;;;8.57;7.07;;;;;;;19.32;49.15;101662.34;5078065;28;20031;-65
2022/06/03 07:59:31;;;;;;;8.35;7.35;;;;;;;19.44;50.76;101672.03;5110945;28;20356;-65
2022/06/03 08:01:58;;;;;;;12.68;8.52;;;;;;;19.63;48.70;101669.44;5077258;28;20020;-65
2022/06/03 08:04:28;;;;;;;8.07;7.28;;;;;;;19.78;48.85;101666.41;5091766;28;20093;-65
2022/06/03 08:12:37;;;;;;;7.80;6.32;;;;;;;20.08;47.41;101649.28;5066298;28;20443;-65
2022/06/03 08:15:19;;;;;;;8.82;7.88;;;;;;;20.16;48.07;101649.47;5095137;28;20082;-65
2022/06/03 08:17:46;;;;;;;9.65;7.60;;;;;;;20.29;47.14;101632.97;5091274;28;20071;-65
2022/06/03 08:20:16;;;;;;;8.95;8.02;;;;;;;20.36;47.73;101626.88;5090929;28;20024;-65
2022/06/03 08:22:41;;;;;;;8.13;7.13;;;;;;;20.45;46.96;101621.63;5089206;28;20095;-65
2022/06/03 08:25:12;;;;;;;8.85;7.93;;;;;;;20.56;46.80;101630.47;5089103;28;20066;-65
2022/06/03 08:27:42;;;;;;;11.70;8.75;;;;;;;20.51;47.66;101631.88;5088131;28;20051;-66
2022/06/03 08:30:14;;;;;;;13.60;8.48;;;;;;;20.48;48.07;101629.44;5089513;28;20024;-65
2022/06/03 08:33:04;;;;;;;9.85;8.85;;;;;;;20.49;47.95;101632.00;5106323;28;20027;-65
2022/06/03 08:35:39;;;;;;;9.57;8.65;;;;;;;20.41;47.95;101630.03;5081015;28;20109;-65
2022/06/03 08:38:40;;;;;;;9.52;8.63;;;;;;;20.56;47.72;101643.09;5089870;28;20467;-65
2022/06/03 08:41:29;;;;;;;10.98;8.65;;;;;;;20.69;48.29;101648.25;5090238;28;20031;-65
2022/06/03 08:44:07;;;;;;;10.85;9.23;;;;;;;20.83;46.93;101624.31;5089821;28;20027;-65
2022/06/03 08:46:53;;;;;;;9.88;8.88;;;;;;;20.93;47.37;101618.88;5089368;28;20036;-65
2022/06/03 08:49:21;;;;;;;11.50;8.63;;;;;;;21.11;46.60;101627.09;5088892;28;20020;-65
2022/06/03 08:51:58;;;;;;;11.85;8.15;;;;;;;21.19;46.09;101634.50;5089806;28;20102;-66
2022/06/03 08:54:30;;;;;;;11.88;8.50;;;;;;;21.31;46.45;101638.72;5089900;28;20189;-66
2022/06/03 08:57:03;;;;;;;8.80;7.47;;;;;;;21.50;45.43;101638.69;5071577;28;20028;-66
2022/06/03 08:59:40;;;;;;;8.10;7.35;;;;;;;21.60;45.98;101637.81;5088634;28;20048;-68
2022/06/03 09:02:12;;;;;;;9.23;8.30;;;;;;;21.75;45.72;101631.72;5090352;28;20028;-65
2022/06/03 09:05:00;;;;;;;12.10;8.90;;;;;;;21.90;44.42;101639.34;5088095;28;20024;-66
2022/06/03 09:07:45;;;;;;;11.73;8.07;;;;;;;21.99;43.96;101641.16;5088920;28;20028;-65
2022/06/03 09:10:22;;;;;;;9.35;8.30;;;;;;;22.08;43.61;101637.53;5073363;28;20016;-66
2022/06/03 09:12:59;;;;;;;8.95;7.95;;;;;;;22.17;43.54;101633.06;5089526;28;20099;-65
2022/06/03 09:15:28;;;;;;;8.73;7.88;;;;;;;22.19;43.21;101631.91;5090068;28;20024;-66
2022/06/03 09:18:07;;;;;;;8.98;8.18;;;;;;;22.27;43.90;101631.16;5089745;28;20085;-65
2022/06/03 09:20:54;;;;;;;;;;;;;;;22.43;42.81;101633.16;5088636;28;20032;-65
2022/06/03 09:23:22;;;;;;;8.25;7.07;;;;;;;22.44;42.54;101629.44;5071373;28;20298;-65
2022/06/03 09:25:54;;;;;;;7.88;6.85;;;;;;;22.44;41.99;101632.16;5070795;28;20463;-66
2022/06/03 09:28:33;;;;;;;11.07;7.20;;;;;;;22.66;42.46;101634.41;5086622;28;20032;-66
2022/06/03 09:31:01;;;;;;;7.53;6.22;;;;;;;22.86;40.72;101636.94;5089301;28;20112;-66
2022/06/03 09:33:30;;;;;;;5.88;5.38;;;;;;;22.89;40.17;101631.19;5090082;28;20104;-66
2022/06/03 09:35:58;;;;;;;6.88;5.72;;;;;;;23.05;39.55;101634.03;5094075;28;20031;-66
2022/06/03 09:38:31;;;;;;;6.90;6.10;;;;;;;23.13;40.13;101616.97;5092110;28;20647;-66
2022/06/03 09:40:59;;;;;;;8.65;5.93;;;;;;;23.33;39.10;101621.16;5074383;28;20536;-65
2022/06/03 09:43:37;;;;;;;7.30;5.60;;;;;;;23.48;39.21;101612.41;5074500;28;20028;-66
2022/06/03 09:46:08;;;;;;;8.20;4.70;;;;;;;23.64;37.92;101619.75;5093313;28;20032;-66
2022/06/03 09:48:36;;;;;;;6.20;4.63;;;;;;;23.44;36.84;101619.16;5090150;28;20286;-66
2022/06/03 09:51:08;;;;;;;5.60;4.65;;;;;;;23.66;37.93;101625.91;5092353;28;20028;-66
2022/06/03 09:53:36;;;;;;;42.80;8.40;;;;;;;23.70;36.88;101620.00;5091945;28;20064;-66
2022/06/03 09:56:07;;;;;;;4.53;4.13;;;;;;;23.94;37.86;101608.38;5091319;28;20036;-66
2022/06/03 09:58:33;;;;;;;4.32;3.10;;;;;;;24.01;35.60;101598.53;5074631;28;20048;-66
2022/06/03 10:01:01;;;;;;;4.88;4.32;;;;;;;24.23;35.91;101602.47;5075098;28;20034;-66
2022/06/03 10:03:28;;;;;;;7.37;4.03;;;;;;;24.29;34.75;101589.22;5075558;28;20021;-66
2022/06/03 10:05:57;;;;;;;10.75;4.18;;;;;;;24.44;34.88;101607.47;5092818;28;20034;-66
2022/06/03 10:08:28;;;;;;;6.70;2.88;;;;;;;24.61;33.94;101605.56;5095448;28;20028;-65
2022/06/03 10:13:42;;;;;;;4.63;2.22;;;;;;;24.95;32.70;101611.84;5090250;28;20046;-66
2022/06/03 10:16:10;;;;;;;2.78;2.47;;;;;;;24.94;31.86;101608.25;5092929;28;20032;-65
2022/06/03 10:18:39;;;;;;;3.83;3.15;;;;;;;24.80;32.03;101601.66;5091870;28;20028;-65
2022/06/03 10:21:05;;;;;;;4.97;3.40;;;;;;;24.88;33.60;101592.63;5092167;28;20113;-66
2022/06/03 10:23:35;;;;;;;4.40;3.40;;;;;;;24.96;31.30;101595.34;5093138;28;20479;-65
2022/06/03 10:26:04;;;;;;;7.28;2.72;;;;;;;25.07;32.22;101583.25;5094208;28;20042;-65
2022/06/03 10:28:38;;;;;;;7.50;3.25;;;;;;;25.10;31.79;101582.91;5089297;28;20026;-65
2022/06/03 10:31:15;;;;;;;5.32;2.88;;;;;;;25.17;31.96;101580.34;5090817;28;20036;-65
2022/06/03 10:33:55;;;;;;;2.95;2.47;;;;;;;25.32;32.40;101570.44;5073567;28;20016;-65
2022/06/03 10:36:50;;;;;;;6.28;2.92;;;;;;;25.46;32.28;101574.28;5075522;28;20402;-66
2022/06/03 10:39:33;;;;;;;4.50;2.20;;;;;;;25.47;31.06;101565.97;5023720;28;20030;-65
2022/06/03 10:41:59;;;;;;;4.90;2.60;;;;;;;25.32;31.71;101579.44;4994653;28;20033;-65
2022/06/03 10:44:36;;;;;;;4.45;2.60;;;;;;;25.36;31.45;101575.34;5013603;28;20033;-66
2022/06/03 10:47:15;;;;;;;3.80;2.75;;;;;;;25.64;32.02;101576.75;5028508;28;20030;-65
2022/06/03 10:49:56;;;;;;;3.63;2.60;;;;;;;25.87;31.12;101577.69;5029954;28;20037;-65
2022/06/03 11:03:35;;;;;;;3.05;1.95;;;;;;;26.27;28.20;101575.72;5013727;28;20049;-66
2022/06/03 11:06:23;;;;;;;2.50;2.30;;;;;;;26.36;29.42;101569.16;5013158;28;20567;-66
2022/06/03 11:08:58;;;;;;;2.30;2.00;;;;;;;26.22;28.35;101569.97;5028548;28;20512;-66
2022/06/03 11:11:42;;;;;;;3.72;1.90;;;;;;;26.35;28.37;101562.00;5066223;28;20117;-66
2022/06/03 11:14:33;;;;;;;2.10;1.50;;;;;;;26.60;28.55;101568.13;5090101;28;20504;-66
2022/06/03 11:16:59;;;;;;;2.55;1.20;;;;;;;26.80;27.96;101559.44;5091897;28;20176;-66
2022/06/03 11:19:25;;;;;;;1.52;1.30;;;;;;;26.79;26.59;101560.44;5073796;28;20031;-66
2022/06/03 11:22:32;;;;;;;4.35;1.25;;;;;;;26.87;27.77;101560.38;5089980;28;20099;-66
2022/06/03 11:25:10;;;;;;;2.45;1.70;;;;;;;26.75;25.70;101556.41;5061043;28;20028;-66
2022/06/03 11:28:01;;;;;;;3.92;1.30;;;;;;;27.26;27.56;101545.63;5092029;28;20077;-66
2022/06/03 11:30:43;;;;;;;2.08;1.30;;;;;;;27.33;26.22;101558.34;5089765;28;20366;-66
2022/06/03 11:33:24;;;;;;;3.13;1.80;;;;;;;27.21;26.37;101550.78;5089649;28;20023;-67
2022/06/03 11:36:04;;;;;;;2.22;1.90;;;;;;;26.86;26.09;101545.03;5090016;28;20024;-66
2022/06/03 11:38:39;;;;;;;3.20;1.70;;;;;;;26.85;26.56;101554.25;5075062;28;20074;-66
2022/06/03 11:41:39;;;;;;;2.15;1.55;;;;;;;27.20;28.39;101554.56;5073619;28;20413;-67
2022/06/03 11:44:14;;;;;;;1.80;1.70;;;;;;;26.93;28.64;101551.44;5077245;28;20089;-66
2022/06/03 11:46:51;;;;;;;2.20;2.00;;;;;;;26.87;26.86;101546.72;5091038;28;20020;-66
2022/06/03 11:49:19;;;;;;;4.47;1.80;;;;;;;26.89;26.65;101545.50;5072979;28;20228;-65
2022/06/03 11:51:46;;;;;;;7.45;2.00;;;;;;;27.16;27.05;101545.91;5090338;28;20027;-66
2022/06/03 11:54:16;;;;;;;1.88;1.58;;;;;;;27.56;27.32;101552.75;5090529;28;20024;-66
2022/06/03 11:56:44;;;;;;;2.85;1.70;;;;;;;27.79;25.73;101547.13;5090675;28;20650;-66
2022/06/03 11:59:20;;;;;;;3.03;1.83;;;;;;;28.16;25.16;101549.84;5090944;28;20200;-66
2022/06/03 12:01:48;;;;;;;2.97;1.58;;;;;;;28.68;24.68;101552.22;5090845;28;20394;-66
2022/06/03 12:04:36;;;;;;;2.22;1.63;;;;;;;29.19;25.18;101549.19;5091093;28;20035;-66
2022/06/03 12:07:04;;;;;;;3.05;2.08;;;;;;;29.57;23.56;101556.13;5089808;28;20020;-66
2022/06/03 12:09:51;;;;;;;4.18;1.42;;;;;;;29.96;24.08;101547.19;5090814;28;20487;-66
2022/06/03 12:15:35;;;;;;;4.32;1.95;;;;;;;30.37;23.53;101551.69;5091594;28;20043;-66
2022/06/03 12:18:06;;;;;;;3.83;1.60;;;;;;;30.93;22.33;101542.19;5070767;28;20097;-66
2022/06/03 12:20:31;;;;;;;4.88;2.05;;;;;;;31.38;22.06;101542.28;5083812;28;20035;-66
2022/06/03 12:23:18;;;;;;;3.72;1.60;;;;;;;31.71;22.09;101541.25;5087219;28;20068;-65
2022/06/03 12:25:51;;;;;;;1.63;1.50;;;;;;;31.57;21.27;101527.59;5084569;28;20040;-68
2022/06/03 12:28:41;;;;;;;2.47;1.48;;;;;;;31.97;22.46;101530.13;5078933;28;20028;-66
2022/06/03 12:31:19;;;;;;;3.17;1.80;;;;;;;31.61;21.93;101526.06;5071485;28;20024;-66
2022/06/03 12:33:44;;;;;;;2.33;1.77;;;;;;;31.71;20.23;101517.38;5072677;28;20028;-66
2022/06/03 12:36:35;;;;;;;2.20;1.35;;;;;;;31.94;21.88;101519.56;5072266;28;20115;-66
2022/06/03 12:39:08;;;;;;;3.78;1.40;;;;;;;31.77;20.89;101518.38;5088037;28;20085;-66
2022/06/03 12:41:46;;;;;;;2.45;1.50;;;;;;;31.90;21.14;101521.06;5072104;28;20028;-66
2022/06/03 12:44:37;;;;;;;4.25;1.30;;;;;;;32.97;20.95;101521.00;5090373;28;20135;-66
2022/06/03 12:47:18;;;;;;;5.57;1.50;;;;;;;32.94;20.98;101514.00;5086350;28;20051;-67
2022/06/03 12:49:43;;;;;;;1.52;1.40;;;;;;;32.03;20.38;101514.63;5091668;28;20028;-67
2022/06/03 12:52:35;;;;;;;1.52;1.40;;;;;;;31.41;21.70;101517.09;5089959;28;20383;-66
2022/06/03 12:55:17;;;;;;;2.95;1.40;;;;;;;30.46;21.81;101512.00;5071967;28;20031;-67
2022/06/03 12:58:01;;;;;;;3.05;1.50;;;;;;;29.83;22.26;101500.53;5071666;28;20032;-67
2022/06/03 13:00:48;;;;;;;1.55;1.20;;;;;;;29.61;23.54;101502.56;5072088;28;20580;-66
2022/06/03 13:03:19;;;;;;;3.28;1.25;;;;;;;29.51;22.64;101499.38;5091590;28;20031;-66